Time;durP1;ratioP1;P1;durP2;ratioP2;P2;SDS_P1;SDS_P2;PMS_P1;PMS_P2;Temp;Humidity;BMP_temperature;BMP_pressure;BME280_temperature;BME280_humidity;BME280_pressure;Samples;Min_cycle;Max_cycle;Signal;HPM_P1;HPM_P2
2021/05/29 00:02:05;;;;;;;1.57;1.47;;;8.40;99.90;;;;;;4974510;28;20757;-83
2021/05/29 00:04:31;;;;;;;2.05;1.50;;;8.40;99.90;;;;;;4973834;28;20433;-82
2021/05/29 00:06:56;;;;;;;1.80;1.70;;;8.40;99.90;;;;;;4978379;28;20399;-83
2021/05/29 00:09:22;;;;;;;1.70;1.60;;;8.40;99.90;;;;;;4975322;28;20416;-80
2021/05/29 00:11:48;;;;;;;1.58;1.48;;;8.30;99.90;;;;;;4966047;28;20803;-81
2021/05/29 00:14:14;;;;;;;1.70;1.60;;;8.40;99.90;;;;;;4974776;28;20487;-80
2021/05/29 00:16:42;;;;;;;1.55;1.45;;;8.20;99.90;;;;;;4960191;28;20784;-78
2021/05/29 00:19:12;;;;;;;1.40;1.30;;;8.20;99.90;;;;;;4986741;28;20412;-80
2021/05/29 00:21:38;;;;;;;1.65;1.40;;;8.30;99.90;;;;;;4976457;28;20394;-84
2021/05/29 00:24:05;;;;;;;1.63;1.53;;;8.20;99.90;;;;;;4997087;28;20465;-85
2021/05/29 00:26:30;;;;;;;2.28;1.65;;;8.10;99.90;;;;;;5005964;28;20501;-80
2021/05/29 00:28:56;;;;;;;2.37;1.47;;;8.00;99.90;;;;;;5008196;28;20490;-83
2021/05/29 00:31:22;;;;;;;1.67;1.58;;;8.00;99.90;;;;;;5006139;28;20891;-84
2021/05/29 00:33:47;;;;;;;1.60;1.50;;;8.00;99.90;;;;;;5024123;28;20398;-81
2021/05/29 00:36:13;;;;;;;1.73;1.63;;;7.90;99.90;;;;;;5001443;28;20449;-82
2021/05/29 00:38:39;;;;;;;1.80;1.70;;;7.90;99.90;;;;;;4996130;28;20401;-85
2021/05/29 00:41:08;;;;;;;1.67;1.58;;;7.80;99.90;;;;;;5013103;28;20395;-79
2021/05/29 00:43:34;;;;;;;1.95;1.65;;;7.80;99.90;;;;;;5001202;28;20400;-78
2021/05/29 00:46:00;;;;;;;1.97;1.70;;;7.80;99.90;;;;;;5003361;28;20874;-76
2021/05/29 00:48:26;;;;;;;2.10;1.70;;;7.70;99.90;;;;;;4979245;28;20485;-83
2021/05/29 00:50:59;;;;;;;1.95;1.85;;;7.60;99.90;;;;;;4977680;28;20371;-80
2021/05/29 00:53:25;;;;;;;1.60;1.50;;;7.60;99.90;;;;;;4976028;28;20394;-79
2021/05/29 00:55:50;;;;;;;2.00;1.90;;;7.50;99.90;;;;;;5009712;28;20543;-83
2021/05/29 00:58:16;;;;;;;2.03;1.92;;;7.50;99.90;;;;;;5009632;28;20456;-77
2021/05/29 01:00:41;;;;;;;2.07;1.90;;;7.50;99.90;;;;;;4979740;28;20389;-84
2021/05/29 01:03:07;;;;;;;2.35;2.15;;;7.50;99.90;;;;;;4976363;28;20429;-84
2021/05/29 01:05:33;;;;;;;2.17;2.03;;;7.50;99.90;;;;;;4992672;28;20419;-85
2021/05/29 01:07:59;;;;;;;2.45;2.25;;;7.50;99.90;;;;;;4980169;28;20410;-80
2021/05/29 01:10:25;;;;;;;2.20;2.10;;;7.40;99.90;;;;;;4977168;28;20436;-78
2021/05/29 01:12:51;;;;;;;1.70;1.60;;;7.60;99.90;;;;;;4976107;28;20397;-79
2021/05/29 01:15:18;;;;;;;2.40;2.20;;;7.50;99.90;;;;;;4975852;28;20397;-81
2021/05/29 01:17:44;;;;;;;2.50;2.30;;;7.50;99.90;;;;;;4985496;28;20400;-81
2021/05/29 01:20:10;;;;;;;2.42;2.22;;;7.40;99.90;;;;;;4960862;28;20905;-88
2021/05/29 01:22:50;;;;;;;2.40;2.20;;;7.40;99.90;;;;;;4976500;28;20479;-81
2021/05/29 01:25:22;;;;;;;2.30;2.10;;;7.40;99.90;;;;;;4978368;28;20967;-78
2021/05/29 01:28:18;;;;;;;2.20;2.10;;;7.40;99.90;;;;;;5007859;28;20424;-79
2021/05/29 01:31:00;;;;;;;2.20;2.10;;;7.40;99.90;;;;;;4980039;28;20439;-87
2021/05/29 01:33:31;;;;;;;2.88;2.67;;;7.30;99.90;;;;;;4989163;28;20397;-82
2021/05/29 01:36:05;;;;;;;2.30;2.10;;;7.30;99.90;;;;;;4982434;28;21184;-80
2021/05/29 01:38:31;;;;;;;2.40;2.20;;;7.30;99.90;;;;;;4990314;28;20952;-85
2021/05/29 01:41:02;;;;;;;2.60;2.40;;;7.30;99.90;;;;;;4975120;28;20404;-78
2021/05/29 01:43:28;;;;;;;2.83;2.63;;;7.20;99.90;;;;;;4985570;28;20434;-86
2021/05/29 01:45:53;;;;;;;2.53;2.33;;;7.10;99.90;;;;;;4958399;28;20426;-79
2021/05/29 01:48:20;;;;;;;2.37;2.20;;;7.10;99.90;;;;;;4998659;28;20393;-83
2021/05/29 01:50:46;;;;;;;2.40;2.20;;;7.10;99.90;;;;;;4995564;28;20409;-82
2021/05/29 01:53:13;;;;;;;2.60;2.40;;;7.10;99.90;;;;;;4975023;28;20776;-81
2021/05/29 01:55:39;;;;;;;2.70;2.40;;;7.10;99.90;;;;;;4975891;28;20431;-81
2021/05/29 01:58:04;;;;;;;2.92;2.53;;;7.10;99.90;;;;;;4992530;28;20412;-83
2021/05/29 02:00:30;;;;;;;3.00;2.70;;;7.10;99.90;;;;;;4983156;28;20459;-80
2021/05/29 02:02:56;;;;;;;2.70;2.50;;;7.00;99.90;;;;;;4975388;28;20467;-83
2021/05/29 02:05:26;;;;;;;3.30;2.92;;;7.00;99.90;;;;;;4973972;28;20482;-81
2021/05/29 02:07:52;;;;;;;2.70;2.50;;;6.80;99.90;;;;;;5011699;28;20752;-80
2021/05/29 02:10:20;;;;;;;2.90;2.70;;;6.80;99.90;;;;;;4995757;28;20416;-79
2021/05/29 02:12:47;;;;;;;2.90;2.60;;;6.70;99.90;;;;;;4974943;28;20456;-83
2021/05/29 02:15:16;;;;;;;2.93;2.70;;;6.90;99.90;;;;;;4973757;28;20405;-79
2021/05/29 02:17:43;;;;;;;2.83;2.63;;;6.80;99.90;;;;;;4967695;28;20480;-86
2021/05/29 02:20:09;;;;;;;3.05;2.78;;;6.80;99.90;;;;;;4985410;28;20402;-80
2021/05/29 02:22:35;;;;;;;2.70;2.50;;;6.70;99.90;;;;;;4994834;28;20436;-78
2021/05/29 02:25:01;;;;;;;2.43;2.23;;;6.80;99.90;;;;;;4974379;28;20416;-80
2021/05/29 02:27:27;;;;;;;2.50;2.30;;;6.90;99.90;;;;;;4975719;28;20475;-83
2021/05/29 02:29:52;;;;;;;2.72;2.53;;;6.80;99.90;;;;;;4990345;28;20408;-81
2021/05/29 02:32:18;;;;;;;2.97;2.70;;;6.80;99.90;;;;;;4974598;28;20739;-78
2021/05/29 02:34:44;;;;;;;5.20;2.80;;;6.80;99.90;;;;;;4974022;28;20428;-82
2021/05/29 02:37:09;;;;;;;3.25;2.97;;;6.80;99.90;;;;;;4982883;28;20762;-83
2021/05/29 02:39:35;;;;;;;3.22;2.92;;;6.70;99.90;;;;;;4988477;28;20389;-79
2021/05/29 02:42:01;;;;;;;2.93;2.73;;;6.80;99.90;;;;;;4997399;28;20408;-86
2021/05/29 02:44:27;;;;;;;2.90;2.70;;;6.60;99.90;;;;;;4972292;28;20402;-80
2021/05/29 02:46:53;;;;;;;3.50;2.70;;;6.60;99.90;;;;;;4973197;28;20404;-82
2021/05/29 02:49:18;;;;;;;3.13;2.83;;;6.60;99.90;;;;;;4974833;28;21029;-82
2021/05/29 02:51:44;;;;;;;3.40;3.10;;;6.60;99.90;;;;;;4975468;28;20773;-80
2021/05/29 02:54:10;;;;;;;3.17;2.88;;;6.60;99.90;;;;;;5003863;28;20410;-79
2021/05/29 02:56:36;;;;;;;3.33;3.03;;;6.60;99.90;;;;;;5000063;28;20455;-84
2021/05/29 02:59:01;;;;;;;3.10;2.90;;;6.60;99.90;;;;;;4977222;28;20465;-82
2021/05/29 03:01:27;;;;;;;3.30;2.72;;;6.50;99.90;;;;;;4980046;28;20904;-81
2021/05/29 03:03:53;;;;;;;2.80;2.60;;;6.50;99.90;;;;;;4979933;28;20495;-79
2021/05/29 03:06:18;;;;;;;2.78;2.58;;;6.60;99.90;;;;;;4957696;28;20480;-77
2021/05/29 03:08:44;;;;;;;2.80;2.60;;;6.60;99.90;;;;;;4962259;28;20784;-84
2021/05/29 03:11:11;;;;;;;3.00;2.73;;;6.60;99.90;;;;;;4977027;28;20396;-76
2021/05/29 03:13:37;;;;;;;3.38;2.88;;;6.60;99.90;;;;;;4986483;28;20411;-79
2021/05/29 03:16:03;;;;;;;3.15;2.85;;;6.50;99.90;;;;;;4952705;28;20442;-82
2021/05/29 03:18:29;;;;;;;3.42;3.00;;;6.50;99.90;;;;;;4978229;28;20786;-78
2021/05/29 03:20:55;;;;;;;3.25;2.70;;;6.50;99.90;;;;;;5003090;28;20439;-84
2021/05/29 03:23:23;;;;;;;4.22;3.00;;;6.50;99.90;;;;;;4973513;28;20421;-83
2021/05/29 03:25:49;;;;;;;3.00;2.80;;;6.50;99.90;;;;;;4973955;28;20417;-84
2021/05/29 03:28:15;;;;;;;3.23;2.93;;;6.50;99.90;;;;;;4973665;28;20428;-81
2021/05/29 03:30:42;;;;;;;3.08;2.88;;;6.50;99.90;;;;;;4972700;28;20421;-80
2021/05/29 03:33:08;;;;;;;3.20;3.00;;;6.50;99.90;;;;;;4970913;28;20410;-84
2021/05/29 03:35:33;;;;;;;3.08;2.88;;;6.40;99.90;;;;;;4989477;28;20400;-78
2021/05/29 03:37:59;;;;;;;3.53;3.23;;;6.50;99.90;;;;;;4972001;28;20397;-84
2021/05/29 03:40:25;;;;;;;3.17;2.97;;;6.50;99.90;;;;;;4979410;28;20414;-84
2021/05/29 03:42:51;;;;;;;3.38;3.08;;;6.50;99.90;;;;;;4974384;28;20404;-82
2021/05/29 03:45:18;;;;;;;3.50;3.20;;;6.50;99.90;;;;;;4946454;28;20541;-79
2021/05/29 03:47:44;;;;;;;3.73;3.43;;;6.50;99.90;;;;;;4987761;28;20978;-89
2021/05/29 03:50:10;;;;;;;3.47;3.17;;;6.50;99.90;;;;;;5013953;28;20480;-82
2021/05/29 03:52:36;;;;;;;3.95;2.88;;;6.50;99.90;;;;;;4969708;28;20464;-80
2021/05/29 03:55:03;;;;;;;2.90;2.70;;;6.70;99.90;;;;;;4980750;28;20419;-77
2021/05/29 03:57:29;;;;;;;3.45;3.17;;;6.60;99.90;;;;;;4999343;28;20450;-79
2021/05/29 03:59:55;;;;;;;3.20;2.90;;;6.60;99.90;;;;;;4990965;28;20413;-87
2021/05/29 04:02:20;;;;;;;3.30;3.00;;;6.70;99.90;;;;;;4981983;28;20925;-84
2021/05/29 04:04:46;;;;;;;3.73;3.33;;;6.70;99.90;;;;;;4992960;28;20401;-82
2021/05/29 04:07:12;;;;;;;3.88;3.00;;;6.80;99.90;;;;;;4981081;28;20895;-76
2021/05/29 04:09:37;;;;;;;3.47;3.17;;;6.80;99.90;;;;;;4977184;28;20793;-88
2021/05/29 04:12:04;;;;;;;3.13;2.83;;;6.80;99.90;;;;;;4977505;28;20411;-84
2021/05/29 04:14:29;;;;;;;3.30;3.10;;;6.90;99.90;;;;;;5006381;28;20455;-82
2021/05/29 04:16:55;;;;;;;3.17;2.92;;;6.90;99.90;;;;;;4992036;28;20392;-84
2021/05/29 04:19:21;;;;;;;3.27;2.97;;;7.00;99.90;;;;;;4982103;28;20397;-77
2021/05/29 04:21:46;;;;;;;3.63;3.33;;;7.10;99.90;;;;;;4977219;28;20980;-85
2021/05/29 04:24:12;;;;;;;3.45;3.15;;;7.20;99.90;;;;;;4994893;28;20392;-80
2021/05/29 04:26:38;;;;;;;3.50;3.20;;;7.20;99.90;;;;;;4974259;28;20488;-84
2021/05/29 04:29:04;;;;;;;3.38;3.08;;;7.30;99.90;;;;;;4960736;28;20474;-81
2021/05/29 04:31:30;;;;;;;3.38;3.17;;;7.40;99.90;;;;;;4973077;28;20814;-83
2021/05/29 04:33:55;;;;;;;3.40;3.10;;;7.50;99.90;;;;;;5006655;28;20483;-84
2021/05/29 04:36:21;;;;;;;3.43;3.10;;;7.50;99.90;;;;;;4979719;28;20472;-82
2021/05/29 04:38:47;;;;;;;3.70;3.40;;;7.60;99.90;;;;;;5010539;28;20789;-81
2021/05/29 04:41:13;;;;;;;4.33;3.33;;;7.60;99.90;;;;;;4976812;28;20446;-84
2021/05/29 04:43:38;;;;;;;3.60;3.30;;;7.70;99.90;;;;;;4975641;28;20409;-83
2021/05/29 04:46:04;;;;;;;3.10;2.80;;;7.70;99.90;;;;;;4975620;28;20389;-80
2021/05/29 04:48:30;;;;;;;3.80;3.50;;;7.80;99.90;;;;;;4972843;28;20407;-82
2021/05/29 04:53:44;;;;;;;3.65;3.20;;;8.00;99.90;;;;;;5007499;28;20408;-87
2021/05/29 04:56:12;;;;;;;3.58;3.28;;;8.10;99.90;;;;;;4978022;28;20389;-82
2021/05/29 04:58:38;;;;;;;3.35;3.05;;;8.10;99.90;;;;;;4985772;28;20411;-86
2021/05/29 05:01:06;;;;;;;3.33;3.03;;;8.10;99.90;;;;;;4985963;28;20405;-86
2021/05/29 05:03:32;;;;;;;3.30;3.00;;;8.20;99.90;;;;;;4976559;28;20917;-83
2021/05/29 05:05:58;;;;;;;4.03;3.42;;;8.30;99.90;;;;;;4983406;28;20430;-79
2021/05/29 05:08:24;;;;;;;4.20;3.80;;;8.30;99.90;;;;;;4998175;28;20466;-78
2021/05/29 05:10:51;;;;;;;3.83;3.42;;;8.40;99.90;;;;;;4972547;28;20511;-80
2021/05/29 05:13:17;;;;;;;4.40;4.00;;;8.40;99.90;;;;;;4987264;28;20395;-84
2021/05/29 05:15:42;;;;;;;3.88;3.58;;;8.40;99.90;;;;;;4966487;28;20402;-87
2021/05/29 05:18:08;;;;;;;4.93;4.43;;;8.60;99.90;;;;;;4981298;28;20398;-85
2021/05/29 05:20:36;;;;;;;4.70;4.30;;;8.60;99.90;;;;;;4974216;28;20407;-82
2021/05/29 05:23:01;;;;;;;4.47;4.07;;;8.60;99.90;;;;;;4981832;28;20399;-83
2021/05/29 05:25:28;;;;;;;4.63;4.23;;;8.70;99.90;;;;;;4990862;28;20957;-79
2021/05/29 05:27:54;;;;;;;4.72;4.30;;;8.80;99.90;;;;;;5008578;28;20406;-82
2021/05/29 05:30:21;;;;;;;4.60;4.20;;;8.90;99.90;;;;;;4982517;28;20484;-77
2021/05/29 05:32:47;;;;;;;4.97;4.57;;;8.90;99.90;;;;;;4978791;28;20509;-81
2021/05/29 05:35:15;;;;;;;5.10;4.65;;;9.00;99.90;;;;;;5010181;28;20449;-87
2021/05/29 05:37:41;;;;;;;4.57;4.18;;;9.00;99.90;;;;;;4961618;28;20415;-90
2021/05/29 05:40:08;;;;;;;6.07;4.40;;;9.10;99.90;;;;;;4976241;28;20411;-87
2021/05/29 05:42:33;;;;;;;4.55;4.15;;;9.00;99.90;;;;;;4984776;28;20410;-81
2021/05/29 05:44:59;;;;;;;4.60;4.20;;;9.10;99.90;;;;;;4980802;28;20405;-81
2021/05/29 05:47:25;;;;;;;5.00;4.40;;;9.20;99.90;;;;;;4974925;28;21018;-86
2021/05/29 05:49:51;;;;;;;4.40;4.00;;;9.20;99.90;;;;;;4983228;28;20436;-83
2021/05/29 05:52:16;;;;;;;6.18;4.55;;;9.40;99.90;;;;;;4974407;28;20431;-89
2021/05/29 05:54:42;;;;;;;4.65;4.15;;;9.40;99.90;;;;;;4972914;28;20410;-79
2021/05/29 05:57:08;;;;;;;5.10;3.97;;;9.50;99.90;;;;;;4975112;28;20398;-83
2021/05/29 05:59:34;;;;;;;4.70;4.30;;;9.60;99.90;;;;;;4988563;28;20413;-86
2021/05/29 06:01:59;;;;;;;5.32;4.47;;;9.60;99.90;;;;;;4983081;28;20404;-80
2021/05/29 06:04:25;;;;;;;4.87;4.47;;;9.60;99.90;;;;;;4984237;28;20419;-89
2021/05/29 06:06:51;;;;;;;7.28;6.18;;;9.60;99.90;;;;;;4967421;28;20401;-82
2021/05/29 06:09:16;;;;;;;5.20;4.70;;;9.60;99.90;;;;;;4986926;28;20825;-78
2021/05/29 06:11:44;;;;;;;4.97;4.43;;;9.70;99.90;;;;;;4991131;28;20396;-81
2021/05/29 06:19:23;;;;;;;4.20;3.80;;;9.70;99.90;;;;;;4992686;28;20406;-86
2021/05/29 06:21:50;;;;;;;4.43;4.10;;;9.70;99.90;;;;;;5000948;28;20510;-79
2021/05/29 06:24:21;;;;;;;5.07;4.57;;;9.60;99.90;;;;;;5009994;28;20442;-86
2021/05/29 06:26:48;;;;;;;4.13;3.83;;;9.70;99.90;;;;;;4991185;28;20396;-82
2021/05/29 06:29:15;;;;;;;4.68;4.18;;;9.80;99.90;;;;;;4972676;28;20559;-80
2021/05/29 06:31:40;;;;;;;4.40;4.00;;;9.80;99.90;;;;;;4990819;28;20424;-84
2021/05/29 06:34:06;;;;;;;4.30;3.92;;;9.90;99.90;;;;;;4990178;28;20446;-83
2021/05/29 06:36:32;;;;;;;4.60;4.20;;;9.90;99.90;;;;;;4996148;28;20405;-81
2021/05/29 06:38:58;;;;;;;5.97;4.43;;;9.90;99.90;;;;;;4981377;28;20735;-82
2021/05/29 06:41:24;;;;;;;5.43;4.30;;;9.90;99.90;;;;;;4974039;28;20411;-82
2021/05/29 06:43:50;;;;;;;5.33;4.70;;;10.10;99.90;;;;;;4974077;28;20418;-86
2021/05/29 06:46:17;;;;;;;4.93;4.53;;;10.10;99.90;;;;;;4970222;28;20430;-87
2021/05/29 06:48:43;;;;;;;4.30;3.90;;;10.10;99.90;;;;;;4999016;28;20398;-82
2021/05/29 06:51:11;;;;;;;4.82;4.40;;;10.10;99.90;;;;;;5006924;28;20398;-86
2021/05/29 06:53:43;;;;;;;4.70;4.25;;;10.20;99.90;;;;;;4991674;28;20932;-87
2021/05/29 06:58:53;;;;;;;4.68;4.15;;;10.40;99.90;;;;;;4997398;28;20480;-81
2021/05/29 07:01:20;;;;;;;5.28;4.38;;;10.50;99.90;;;;;;4986175;28;21331;-80
2021/05/29 07:03:47;;;;;;;4.57;4.00;;;10.50;99.90;;;;;;4958530;28;20429;-81
2021/05/29 07:06:13;;;;;;;4.60;4.20;;;10.60;99.90;;;;;;4969511;28;20412;-78
2021/05/29 07:08:39;;;;;;;4.70;4.30;;;10.70;99.90;;;;;;4997936;28;20743;-81
2021/05/29 07:11:04;;;;;;;4.70;4.30;;;10.70;99.90;;;;;;4965307;28;21829;-85
2021/05/29 07:13:30;;;;;;;4.57;4.17;;;10.90;99.90;;;;;;4913178;28;20385;-78
2021/05/29 07:15:56;;;;;;;5.05;4.57;;;11.00;99.90;;;;;;4923076;28;20434;-78
2021/05/29 07:18:24;;;;;;;4.13;3.83;;;11.00;99.90;;;;;;4994828;28;20391;-80
2021/05/29 07:20:50;;;;;;;4.85;4.35;;;11.20;99.90;;;;;;4970684;28;20481;-79
2021/05/29 07:23:16;;;;;;;4.83;4.43;;;11.30;99.90;;;;;;4960918;28;20899;-80
2021/05/29 07:25:42;;;;;;;4.93;4.43;;;11.20;99.90;;;;;;4986878;28;20399;-79
2021/05/29 07:28:08;;;;;;;4.75;4.35;;;11.40;99.90;;;;;;4992122;28;20409;-77
2021/05/29 07:30:34;;;;;;;4.53;4.13;;;11.50;99.90;;;;;;4991745;28;20419;-84
2021/05/29 07:33:00;;;;;;;4.78;4.38;;;11.70;99.90;;;;;;4997533;28;20491;-79
2021/05/29 07:35:27;;;;;;;4.97;4.50;;;11.80;99.90;;;;;;4971624;28;20409;-80
2021/05/29 07:37:53;;;;;;;4.43;4.03;;;11.90;99.90;;;;;;5006830;28;21167;-78
2021/05/29 07:40:19;;;;;;;5.00;4.50;;;12.00;99.90;;;;;;5027676;28;20403;-81
2021/05/29 07:42:45;;;;;;;5.07;4.63;;;12.00;99.90;;;;;;5008838;28;20396;-78
2021/05/29 07:45:11;;;;;;;4.90;4.43;;;12.10;99.90;;;;;;4989881;28;20455;-78
2021/05/29 07:47:37;;;;;;;4.60;4.17;;;12.20;99.90;;;;;;4974673;28;20438;-80
2021/05/29 07:50:03;;;;;;;5.22;3.78;;;12.50;99.90;;;;;;4977464;28;20420;-82
2021/05/29 07:52:29;;;;;;;5.72;4.68;;;12.60;99.90;;;;;;4998122;28;20395;-85
2021/05/29 07:54:55;;;;;;;5.20;4.17;;;12.70;99.90;;;;;;4978936;28;20397;-82
2021/05/29 07:57:21;;;;;;;4.85;4.40;;;12.80;99.90;;;;;;4954448;28;20399;-80
2021/05/29 07:59:46;;;;;;;4.53;4.13;;;13.00;99.90;;;;;;5007713;28;20391;-77
2021/05/29 08:02:12;;;;;;;5.30;4.10;;;13.20;99.90;;;;;;4975973;28;20393;-77
2021/05/29 08:04:39;;;;;;;4.93;4.40;;;13.30;99.90;;;;;;5000009;28;20815;-81
2021/05/29 08:07:05;;;;;;;3.83;3.53;;;13.30;99.90;;;;;;4986579;28;20399;-78
2021/05/29 08:09:30;;;;;;;4.32;3.92;;;13.50;99.90;;;;;;4978040;28;20769;-80
2021/05/29 08:11:56;;;;;;;4.73;4.33;;;13.60;99.90;;;;;;5002462;28;20409;-84
2021/05/29 08:14:22;;;;;;;4.20;3.80;;;13.60;99.90;;;;;;4985074;28;20469;-79
2021/05/29 08:16:48;;;;;;;4.43;4.03;;;13.70;99.90;;;;;;5013467;28;20395;-79
2021/05/29 08:19:13;;;;;;;4.65;3.83;;;13.70;99.90;;;;;;4988201;28;20402;-84
2021/05/29 08:21:43;;;;;;;4.17;3.73;;;13.90;99.90;;;;;;4974993;28;20468;-76
2021/05/29 08:24:11;;;;;;;4.25;3.95;;;13.80;99.90;;;;;;4982538;28;20429;-80
2021/05/29 08:26:37;;;;;;;4.70;4.10;;;13.90;99.90;;;;;;4959932;28;20404;-78
2021/05/29 08:29:14;;;;;;;4.22;3.83;;;14.00;99.90;;;;;;4990461;28;20426;-88
2021/05/29 08:31:42;;;;;;;5.50;4.07;;;14.10;99.90;;;;;;5012509;28;20387;-81
2021/05/29 08:34:09;;;;;;;6.10;4.50;;;14.30;99.90;;;;;;4998387;28;20410;-82
2021/05/29 08:36:36;;;;;;;6.07;4.43;;;14.40;99.90;;;;;;4990288;28;21224;-78
2021/05/29 08:39:29;;;;;;;4.93;4.13;;;14.70;99.90;;;;;;4979184;28;20399;-86
2021/05/29 08:41:57;;;;;;;4.10;3.72;;;14.60;99.90;;;;;;5021220;28;20387;-80
2021/05/29 08:44:23;;;;;;;4.70;4.05;;;14.70;99.90;;;;;;5017770;28;20897;-79
2021/05/29 08:46:49;;;;;;;4.55;4.15;;;14.90;99.90;;;;;;5003410;28;20669;-79
2021/05/29 08:49:15;;;;;;;5.22;3.72;;;15.10;99.90;;;;;;4967457;28;20443;-79
2021/05/29 08:51:41;;;;;;;4.20;3.80;;;15.10;99.90;;;;;;4993730;28;20458;-80
2021/05/29 08:54:06;;;;;;;4.18;3.78;;;15.20;99.90;;;;;;4994302;28;20424;-79
2021/05/29 08:56:32;;;;;;;3.85;3.55;;;15.60;99.90;;;;;;5000688;28;20395;-79
2021/05/29 08:58:59;;;;;;;3.73;3.33;;;15.90;99.90;;;;;;4979391;28;21079;-80
2021/05/29 09:01:25;;;;;;;3.60;3.30;;;16.20;99.90;;;;;;4976573;28;20458;-81
2021/05/29 09:03:53;;;;;;;4.23;3.80;;;16.40;99.90;;;;;;4982167;28;20513;-81
2021/05/29 09:06:27;;;;;;;3.92;3.10;;;16.50;99.90;;;;;;4973125;28;20525;-80
2021/05/29 09:08:55;;;;;;;3.73;3.43;;;16.90;99.90;;;;;;5025718;28;20400;-80
2021/05/29 09:11:50;;;;;;;4.20;3.17;;;17.10;99.90;;;;;;4992844;28;20392;-79
2021/05/29 09:14:28;;;;;;;3.63;3.33;;;17.40;99.90;;;;;;4986731;28;20491;-78
2021/05/29 09:17:17;;;;;;;3.83;3.42;;;17.60;99.90;;;;;;5007380;28;20463;-80
2021/05/29 09:20:11;;;;;;;3.28;2.97;;;17.60;99.90;;;;;;4997108;28;20404;-81
2021/05/29 09:22:56;;;;;;;5.60;3.50;;;17.80;99.90;;;;;;5008115;28;20413;-82
2021/05/29 09:25:23;;;;;;;3.50;3.20;;;18.00;99.90;;;;;;4992996;28;20423;-84
2021/05/29 09:27:57;;;;;;;3.25;2.95;;;18.10;99.90;;;;;;4977478;28;20447;-82
2021/05/29 09:30:48;;;;;;;2.67;2.47;;;18.10;99.90;;;;;;4992608;28;20437;-81
2021/05/29 09:33:27;;;;;;;4.13;3.30;;;18.00;99.90;;;;;;4983533;28;20424;-81
2021/05/29 09:35:59;;;;;;;2.90;2.70;;;17.90;99.90;;;;;;4968590;28;20457;-79
2021/05/29 09:38:27;;;;;;;2.70;2.50;;;17.90;99.90;;;;;;4985609;28;20410;-80
2021/05/29 09:40:54;;;;;;;2.92;2.45;;;17.80;99.90;;;;;;4983132;28;20388;-80
2021/05/29 09:43:20;;;;;;;2.75;2.50;;;17.90;99.90;;;;;;4977300;28;20404;-80
2021/05/29 09:45:58;;;;;;;2.17;2.00;;;18.20;99.90;;;;;;4990905;28;20388;-79
2021/05/29 09:48:24;;;;;;;3.10;2.25;;;18.60;99.90;;;;;;4958790;28;20407;-78
2021/05/29 09:51:20;;;;;;;2.60;2.40;;;18.70;99.90;;;;;;4972195;28;20413;-79
2021/05/29 09:53:48;;;;;;;3.25;2.30;;;18.70;99.90;;;;;;4978238;28;20399;-79
2021/05/29 09:56:34;;;;;;;2.30;2.10;;;18.50;99.90;;;;;;4970684;28;20420;-79
2021/05/29 09:59:12;;;;;;;2.03;1.92;;;18.50;99.90;;;;;;5004874;28;20408;-78
2021/05/29 10:01:45;;;;;;;2.13;1.83;;;18.30;99.90;;;;;;5021832;28;20743;-79
2021/05/29 10:04:15;;;;;;;1.80;1.70;;;18.30;99.90;;;;;;5006863;28;20491;-78
2021/05/29 10:06:41;;;;;;;1.90;1.80;;;18.60;99.90;;;;;;5015251;28;20419;-79
2021/05/29 10:09:06;;;;;;;2.72;1.90;;;19.00;99.90;;;;;;4991340;28;20405;-79
2021/05/29 10:11:35;;;;;;;2.00;1.80;;;19.40;99.90;;;;;;4990866;28;20443;-78
2021/05/29 10:14:00;;;;;;;1.88;1.75;;;19.50;99.90;;;;;;4974659;28;20401;-78
2021/05/29 10:16:26;;;;;;;3.60;1.80;;;19.70;99.90;;;;;;4974139;28;20399;-79
2021/05/29 10:18:55;;;;;;;1.90;1.80;;;19.50;99.90;;;;;;4973352;28;20488;-77
2021/05/29 10:21:21;;;;;;;2.38;1.90;;;19.20;99.90;;;;;;4992517;28;20459;-79
2021/05/29 10:23:47;;;;;;;1.53;1.43;;;19.30;99.90;;;;;;4974882;28;20901;-79
2021/05/29 10:26:17;;;;;;;1.60;1.50;;;19.40;99.90;;;;;;4998754;28;21054;-77
2021/05/29 10:28:44;;;;;;;3.07;1.93;;;19.60;99.90;;;;;;4991811;28;20409;-79
2021/05/29 10:31:10;;;;;;;2.03;1.65;;;19.50;99.90;;;;;;4979017;28;20397;-79
2021/05/29 10:33:42;;;;;;;1.55;1.45;;;19.80;99.90;;;;;;4975137;28;20759;-77
2021/05/29 10:36:37;;;;;;;2.60;1.60;;;19.90;99.90;;;;;;4986810;28;20457;-80
2021/05/29 10:39:04;;;;;;;2.20;1.70;;;20.10;99.90;;;;;;5022324;28;20384;-80
2021/05/29 10:41:53;;;;;;;3.30;1.70;;;20.20;99.90;;;;;;5000733;28;20777;-80
2021/05/29 10:44:42;;;;;;;3.47;1.70;;;20.60;99.90;;;;;;4996267;28;20755;-80
2021/05/29 10:47:18;;;;;;;1.85;1.50;;;21.00;99.90;;;;;;4989823;28;20455;-79
2021/05/29 10:49:58;;;;;;;1.70;1.60;;;20.70;99.90;;;;;;4974077;28;20886;-79
2021/05/29 10:52:36;;;;;;;1.60;1.50;;;20.80;99.90;;;;;;4976898;28;20401;-78
2021/05/29 10:55:14;;;;;;;1.30;1.30;;;20.50;99.90;;;;;;5022520;28;20424;-78
2021/05/29 10:57:55;;;;;;;2.07;1.63;;;20.60;99.90;;;;;;5014590;28;20922;-79
2021/05/29 11:00:41;;;;;;;1.55;1.45;;;20.50;99.90;;;;;;4971215;28;20403;-79
2021/05/29 11:03:17;;;;;;;1.65;1.48;;;20.00;99.90;;;;;;5032094;28;20402;-79
2021/05/29 11:05:59;;;;;;;2.37;1.73;;;19.70;99.90;;;;;;5024103;28;20411;-78
2021/05/29 11:08:43;;;;;;;1.80;1.70;;;20.00;99.90;;;;;;4969651;28;20868;-79
2021/05/29 11:11:33;;;;;;;2.28;1.67;;;21.00;99.90;;;;;;4986865;28;20455;-79
2021/05/29 11:14:03;;;;;;;1.60;1.50;;;21.20;99.90;;;;;;4992801;28;20418;-79
2021/05/29 11:16:47;;;;;;;2.50;1.67;;;21.40;99.90;;;;;;4974963;28;20401;-79
2021/05/29 11:19:28;;;;;;;1.83;1.67;;;21.30;99.90;;;;;;5017807;28;21018;-79
2021/05/29 11:22:22;;;;;;;1.65;1.55;;;21.20;99.90;;;;;;4999538;28;20474;-80
2021/05/29 11:24:54;;;;;;;2.78;1.55;;;21.20;99.90;;;;;;5007218;28;20387;-80
2021/05/29 11:27:24;;;;;;;1.73;1.63;;;21.30;99.90;;;;;;5016027;28;20493;-79
2021/05/29 11:30:00;;;;;;;1.60;1.50;;;21.50;99.90;;;;;;4984263;28;20409;-80
2021/05/29 11:32:50;;;;;;;1.77;1.67;;;21.20;99.90;;;;;;5009864;28;20476;-80
2021/05/29 11:35:33;;;;;;;1.98;1.70;;;21.00;99.90;;;;;;4980440;28;20402;-79
2021/05/29 11:38:01;;;;;;;2.20;1.85;;;20.90;99.90;;;;;;4970140;28;20394;-79
2021/05/29 11:40:58;;;;;;;1.60;1.50;;;20.80;99.90;;;;;;5006799;28;20403;-79
2021/05/29 11:43:36;;;;;;;2.30;1.92;;;20.70;99.90;;;;;;4989448;28;20432;-80
2021/05/29 11:46:04;;;;;;;1.75;1.60;;;20.70;99.90;;;;;;5021631;28;20455;-80
2021/05/29 11:48:34;;;;;;;1.63;1.52;;;20.60;99.90;;;;;;4964924;28;20396;-80
2021/05/29 11:51:15;;;;;;;1.70;1.60;;;20.50;99.90;;;;;;4974473;28;20414;-79
2021/05/29 11:53:44;;;;;;;2.00;1.80;;;20.60;99.90;;;;;;4954752;28;20384;-80
2021/05/29 11:56:11;;;;;;;3.20;1.70;;;20.50;99.90;;;;;;5009786;28;20410;-79
2021/05/29 11:58:44;;;;;;;1.70;1.60;;;20.40;99.90;;;;;;4980107;28;20505;-79
2021/05/29 12:01:10;;;;;;;1.70;1.60;;;20.40;99.90;;;;;;4958585;28;20417;-79
2021/05/29 12:03:47;;;;;;;2.35;1.70;;;20.80;99.90;;;;;;4970796;28;20410;-80
2021/05/29 12:06:13;;;;;;;3.97;1.80;;;21.00;99.90;;;;;;4980756;28;20441;-80
2021/05/29 12:09:12;;;;;;;2.50;2.10;;;20.80;99.90;;;;;;4999263;28;20408;-80
2021/05/29 12:11:40;;;;;;;2.13;1.70;;;21.20;99.90;;;;;;4941179;28;20437;-79
2021/05/29 12:14:09;;;;;;;2.33;1.80;;;21.70;99.90;;;;;;4974006;28;20400;-80
2021/05/29 12:16:38;;;;;;;2.03;1.83;;;21.90;99.90;;;;;;4994379;28;20393;-80
2021/05/29 12:19:07;;;;;;;2.15;1.92;;;22.40;99.90;;;;;;4975181;28;20409;-79
2021/05/29 12:21:51;;;;;;;2.13;1.93;;;22.60;99.90;;;;;;4999310;28;20396;-81
2021/05/29 12:24:17;;;;;;;2.45;2.10;;;22.00;98.00;;;;;;4980011;28;20394;-80
2021/05/29 12:26:43;;;;;;;2.40;1.85;;;21.90;99.90;;;;;;5004917;28;20389;-80
2021/05/29 12:29:09;;;;;;;1.85;1.75;;;22.70;99.90;;;;;;4975177;28;20433;-81
2021/05/29 12:31:51;;;;;;;1.98;1.88;;;23.30;99.90;;;;;;4983702;28;20401;-80
2021/05/29 12:34:17;;;;;;;2.95;2.10;;;24.20;99.40;;;;;;4978539;28;20738;-81
2021/05/29 12:36:59;;;;;;;2.47;1.77;;;23.60;96.40;;;;;;4966947;28;20388;-80
2021/05/29 12:39:42;;;;;;;1.97;1.83;;;22.80;98.10;;;;;;5006486;28;20403;-80
2021/05/29 12:42:42;;;;;;;2.50;1.90;;;23.20;99.90;;;;;;5011624;28;20422;-79
2021/05/29 12:45:14;;;;;;;2.20;2.00;;;23.10;98.60;;;;;;4955596;28;20447;-81
2021/05/29 12:48:00;;;;;;;1.77;1.60;;;22.70;98.00;;;;;;5010932;28;20457;-81
2021/05/29 12:50:30;;;;;;;2.80;1.60;;;23.00;98.30;;;;;;4996491;28;20921;-80
2021/05/29 12:53:12;;;;;;;2.00;1.90;;;23.20;96.90;;;;;;4977203;28;20393;-80
2021/05/29 12:55:38;;;;;;;2.07;1.90;;;23.00;96.60;;;;;;4988569;28;20398;-80
2021/05/29 12:58:12;;;;;;;2.08;1.98;;;22.90;97.90;;;;;;4947093;28;20394;-79
2021/05/29 13:01:01;;;;;;;2.25;1.88;;;22.30;96.60;;;;;;5025123;28;20401;-79
2021/05/29 13:11:44;;;;;;;2.67;1.98;;;21.80;99.80;;;;;;5011743;28;20521;-79
2021/05/29 13:14:13;;;;;;;1.80;1.70;;;21.60;98.80;;;;;;4992163;28;20424;-79
2021/05/29 13:16:51;;;;;;;1.77;1.67;;;21.70;97.70;;;;;;4975907;28;20392;-80
2021/05/29 13:19:18;;;;;;;2.00;1.80;;;22.00;98.80;;;;;;5009423;28;20403;-79
2021/05/29 13:21:59;;;;;;;1.90;1.80;;;22.70;97.30;;;;;;4976201;28;20432;-79
2021/05/29 13:24:56;;;;;;;1.85;1.60;;;23.20;96.30;;;;;;5009068;28;20393;-79